sensor_id;sensor_type;location;lat;lon;timestamp;P1;durP1;ratioP1;P2;durP2;ratioP2
39518;SDS011;25200;53.394;10.414;2023-02-22T00:00:35;21.13;;;9.18;;
39518;SDS011;25200;53.394;10.414;2023-02-22T00:03:18;18.55;;;8.52;;
39518;SDS011;25200;53.394;10.414;2023-02-22T00:05:55;15.38;;;7.20;;
39518;SDS011;25200;53.394;10.414;2023-02-22T00:08:28;16.08;;;7.30;;
39518;SDS011;25200;53.394;10.414;2023-02-22T00:10:57;17.80;;;8.18;;
39518;SDS011;25200;53.394;10.414;2023-02-22T00:13:24;22.17;;;8.30;;
39518;SDS011;25200;53.394;10.414;2023-02-22T00:15:53;14.80;;;6.45;;
39518;SDS011;25200;53.394;10.414;2023-02-22T00:18:19;16.10;;;6.80;;
39518;SDS011;25200;53.394;10.414;2023-02-22T00:20:45;17.67;;;6.57;;
39518;SDS011;25200;53.394;10.414;2023-02-22T00:23:15;14.25;;;6.85;;
39518;SDS011;25200;53.394;10.414;2023-02-22T00:25:43;13.40;;;5.28;;
39518;SDS011;25200;53.394;10.414;2023-02-22T00:28:10;14.05;;;6.47;;
39518;SDS011;25200;53.394;10.414;2023-02-22T00:30:36;13.05;;;5.80;;
39518;SDS011;25200;53.394;10.414;2023-02-22T00:33:02;14.07;;;5.97;;
39518;SDS011;25200;53.394;10.414;2023-02-22T00:35:28;16.05;;;6.90;;
39518;SDS011;25200;53.394;10.414;2023-02-22T00:37:56;15.75;;;6.95;;
39518;SDS011;25200;53.394;10.414;2023-02-22T00:40:24;16.10;;;7.45;;
39518;SDS011;25200;53.394;10.414;2023-02-22T00:42:54;14.70;;;7.50;;
39518;SDS011;25200;53.394;10.414;2023-02-22T00:45:21;18.33;;;7.30;;
39518;SDS011;25200;53.394;10.414;2023-02-22T00:47:48;14.77;;;6.68;;
39518;SDS011;25200;53.394;10.414;2023-02-22T00:50:15;16.17;;;6.95;;
39518;SDS011;25200;53.394;10.414;2023-02-22T00:52:42;14.13;;;6.75;;
39518;SDS011;25200;53.394;10.414;2023-02-22T00:55:10;13.57;;;6.40;;
39518;SDS011;25200;53.394;10.414;2023-02-22T00:57:40;15.30;;;7.10;;
39518;SDS011;25200;53.394;10.414;2023-02-22T01:00:06;17.92;;;7.43;;
39518;SDS011;25200;53.394;10.414;2023-02-22T01:02:37;15.88;;;6.88;;
39518;SDS011;25200;53.394;10.414;2023-02-22T01:05:04;17.80;;;7.25;;
39518;SDS011;25200;53.394;10.414;2023-02-22T01:07:36;14.60;;;6.97;;
39518;SDS011;25200;53.394;10.414;2023-02-22T01:10:03;16.48;;;7.70;;
39518;SDS011;25200;53.394;10.414;2023-02-22T01:12:29;16.02;;;7.15;;
39518;SDS011;25200;53.394;10.414;2023-02-22T01:14:55;15.38;;;6.28;;
39518;SDS011;25200;53.394;10.414;2023-02-22T01:17:25;17.00;;;6.35;;
39518;SDS011;25200;53.394;10.414;2023-02-22T01:19:51;14.07;;;6.60;;
39518;SDS011;25200;53.394;10.414;2023-02-22T01:22:18;15.77;;;7.05;;
39518;SDS011;25200;53.394;10.414;2023-02-22T01:24:45;12.45;;;5.93;;
39518;SDS011;25200;53.394;10.414;2023-02-22T01:27:15;15.90;;;6.47;;
39518;SDS011;25200;53.394;10.414;2023-02-22T01:29:41;14.60;;;6.18;;
39518;SDS011;25200;53.394;10.414;2023-02-22T01:32:07;14.15;;;6.40;;
39518;SDS011;25200;53.394;10.414;2023-02-22T01:34:33;16.13;;;5.90;;
39518;SDS011;25200;53.394;10.414;2023-02-22T01:36:59;13.88;;;5.90;;
39518;SDS011;25200;53.394;10.414;2023-02-22T01:39:28;15.23;;;5.82;;
39518;SDS011;25200;53.394;10.414;2023-02-22T01:41:53;12.02;;;5.60;;
39518;SDS011;25200;53.394;10.414;2023-02-22T01:46:56;14.35;;;5.18;;
39518;SDS011;25200;53.394;10.414;2023-02-22T01:49:23;12.77;;;5.05;;
39518;SDS011;25200;53.394;10.414;2023-02-22T01:51:54;14.73;;;5.30;;
39518;SDS011;25200;53.394;10.414;2023-02-22T01:54:30;17.20;;;4.85;;
39518;SDS011;25200;53.394;10.414;2023-02-22T01:57:33;16.73;;;4.43;;
39518;SDS011;25200;53.394;10.414;2023-02-22T01:59:56;14.75;;;4.95;;
39518;SDS011;25200;53.394;10.414;2023-02-22T02:02:25;13.15;;;5.18;;
39518;SDS011;25200;53.394;10.414;2023-02-22T02:04:52;12.85;;;4.68;;
39518;SDS011;25200;53.394;10.414;2023-02-22T02:07:19;10.40;;;4.32;;
39518;SDS011;25200;53.394;10.414;2023-02-22T02:09:57;10.90;;;4.38;;
39518;SDS011;25200;53.394;10.414;2023-02-22T02:12:24;11.65;;;4.45;;
39518;SDS011;25200;53.394;10.414;2023-02-22T02:15:10;13.98;;;4.85;;
39518;SDS011;25200;53.394;10.414;2023-02-22T02:17:45;11.88;;;4.13;;
39518;SDS011;25200;53.394;10.414;2023-02-22T02:20:14;11.77;;;3.97;;
39518;SDS011;25200;53.394;10.414;2023-02-22T02:31:05;17.23;;;4.38;;
39518;SDS011;25200;53.394;10.414;2023-02-22T02:34:04;10.98;;;4.05;;
39518;SDS011;25200;53.394;10.414;2023-02-22T02:42:43;11.60;;;4.03;;
39518;SDS011;25200;53.394;10.414;2023-02-22T02:45:26;13.20;;;4.07;;
39518;SDS011;25200;53.394;10.414;2023-02-22T02:48:03;13.85;;;4.30;;
39518;SDS011;25200;53.394;10.414;2023-02-22T02:50:38;13.15;;;3.83;;
39518;SDS011;25200;53.394;10.414;2023-02-22T02:53:10;14.73;;;3.85;;
39518;SDS011;25200;53.394;10.414;2023-02-22T02:55:37;11.80;;;3.88;;
39518;SDS011;25200;53.394;10.414;2023-02-22T02:58:03;10.52;;;3.95;;
39518;SDS011;25200;53.394;10.414;2023-02-22T03:00:31;9.02;;;3.45;;
39518;SDS011;25200;53.394;10.414;2023-02-22T03:11:27;16.27;;;4.00;;
39518;SDS011;25200;53.394;10.414;2023-02-22T03:24:21;12.57;;;3.80;;
39518;SDS011;25200;53.394;10.414;2023-02-22T03:27:16;10.30;;;4.10;;
39518;SDS011;25200;53.394;10.414;2023-02-22T03:29:52;10.02;;;3.50;;
39518;SDS011;25200;53.394;10.414;2023-02-22T03:32:24;11.55;;;4.43;;
39518;SDS011;25200;53.394;10.414;2023-02-22T03:34:56;14.73;;;4.43;;
39518;SDS011;25200;53.394;10.414;2023-02-22T03:37:31;15.63;;;5.10;;
39518;SDS011;25200;53.394;10.414;2023-02-22T03:39:59;18.52;;;5.45;;
39518;SDS011;25200;53.394;10.414;2023-02-22T03:42:32;15.60;;;5.28;;
39518;SDS011;25200;53.394;10.414;2023-02-22T03:45:01;14.02;;;5.50;;
39518;SDS011;25200;53.394;10.414;2023-02-22T03:47:37;14.75;;;5.53;;
39518;SDS011;25200;53.394;10.414;2023-02-22T03:50:16;12.60;;;4.20;;
39518;SDS011;25200;53.394;10.414;2023-02-22T03:52:59;12.25;;;4.60;;
39518;SDS011;25200;53.394;10.414;2023-02-22T03:55:25;12.93;;;4.50;;
39518;SDS011;25200;53.394;10.414;2023-02-22T03:57:59;12.55;;;4.30;;
39518;SDS011;25200;53.394;10.414;2023-02-22T04:00:30;15.43;;;5.03;;
39518;SDS011;25200;53.394;10.414;2023-02-22T04:02:58;11.73;;;4.78;;
39518;SDS011;25200;53.394;10.414;2023-02-22T04:05:24;10.13;;;4.20;;
39518;SDS011;25200;53.394;10.414;2023-02-22T04:07:53;11.02;;;4.47;;
39518;SDS011;25200;53.394;10.414;2023-02-22T04:10:20;12.73;;;5.72;;
39518;SDS011;25200;53.394;10.414;2023-02-22T04:12:47;15.48;;;5.25;;
39518;SDS011;25200;53.394;10.414;2023-02-22T04:15:15;16.00;;;5.78;;
39518;SDS011;25200;53.394;10.414;2023-02-22T04:17:44;13.38;;;5.32;;
39518;SDS011;25200;53.394;10.414;2023-02-22T04:20:09;13.73;;;6.07;;
39518;SDS011;25200;53.394;10.414;2023-02-22T04:22:37;15.68;;;5.28;;
39518;SDS011;25200;53.394;10.414;2023-02-22T04:25:04;15.65;;;5.40;;
39518;SDS011;25200;53.394;10.414;2023-02-22T04:27:30;16.85;;;5.75;;
39518;SDS011;25200;53.394;10.414;2023-02-22T04:29:56;16.27;;;6.38;;
39518;SDS011;25200;53.394;10.414;2023-02-22T04:32:21;18.88;;;5.93;;
39518;SDS011;25200;53.394;10.414;2023-02-22T04:34:47;16.15;;;5.50;;
39518;SDS011;25200;53.394;10.414;2023-02-22T04:37:13;24.88;;;6.65;;
39518;SDS011;25200;53.394;10.414;2023-02-22T04:39:39;16.08;;;6.15;;
39518;SDS011;25200;53.394;10.414;2023-02-22T04:42:04;14.48;;;5.63;;
39518;SDS011;25200;53.394;10.414;2023-02-22T04:44:30;16.23;;;4.90;;
39518;SDS011;25200;53.394;10.414;2023-02-22T04:46:56;14.20;;;5.15;;
39518;SDS011;25200;53.394;10.414;2023-02-22T04:49:22;18.35;;;5.57;;
39518;SDS011;25200;53.394;10.414;2023-02-22T04:51:48;16.05;;;6.25;;
39518;SDS011;25200;53.394;10.414;2023-02-22T04:54:14;13.80;;;5.35;;
39518;SDS011;25200;53.394;10.414;2023-02-22T04:56:41;25.33;;;7.18;;
39518;SDS011;25200;53.394;10.414;2023-02-22T04:59:07;18.73;;;6.35;;
39518;SDS011;25200;53.394;10.414;2023-02-22T05:01:33;17.20;;;6.15;;
39518;SDS011;25200;53.394;10.414;2023-02-22T05:04:01;18.05;;;6.28;;
39518;SDS011;25200;53.394;10.414;2023-02-22T05:06:27;22.42;;;7.03;;
39518;SDS011;25200;53.394;10.414;2023-02-22T05:08:53;22.17;;;7.40;;
39518;SDS011;25200;53.394;10.414;2023-02-22T05:11:18;21.95;;;6.85;;
39518;SDS011;25200;53.394;10.414;2023-02-22T05:13:44;14.95;;;5.65;;
39518;SDS011;25200;53.394;10.414;2023-02-22T05:16:09;19.38;;;6.72;;
39518;SDS011;25200;53.394;10.414;2023-02-22T05:18:35;22.15;;;6.43;;
39518;SDS011;25200;53.394;10.414;2023-02-22T05:21:01;23.02;;;6.70;;
39518;SDS011;25200;53.394;10.414;2023-02-22T05:23:26;18.63;;;7.32;;
39518;SDS011;25200;53.394;10.414;2023-02-22T05:25:52;18.38;;;6.88;;
39518;SDS011;25200;53.394;10.414;2023-02-22T05:28:18;19.83;;;6.03;;
39518;SDS011;25200;53.394;10.414;2023-02-22T05:30:43;20.27;;;6.78;;
39518;SDS011;25200;53.394;10.414;2023-02-22T05:33:09;21.25;;;6.95;;
39518;SDS011;25200;53.394;10.414;2023-02-22T05:35:35;16.65;;;6.38;;
39518;SDS011;25200;53.394;10.414;2023-02-22T05:38:01;17.50;;;7.00;;
39518;SDS011;25200;53.394;10.414;2023-02-22T05:40:28;23.52;;;7.93;;
39518;SDS011;25200;53.394;10.414;2023-02-22T05:42:54;20.00;;;6.18;;
39518;SDS011;25200;53.394;10.414;2023-02-22T05:45:23;23.63;;;7.43;;
39518;SDS011;25200;53.394;10.414;2023-02-22T05:47:50;19.35;;;7.50;;
39518;SDS011;25200;53.394;10.414;2023-02-22T05:50:17;15.98;;;5.63;;
39518;SDS011;25200;53.394;10.414;2023-02-22T05:52:43;21.60;;;7.43;;
39518;SDS011;25200;53.394;10.414;2023-02-22T05:55:11;25.10;;;7.05;;
39518;SDS011;25200;53.394;10.414;2023-02-22T05:57:38;20.60;;;7.32;;
39518;SDS011;25200;53.394;10.414;2023-02-22T06:00:04;20.50;;;7.25;;
39518;SDS011;25200;53.394;10.414;2023-02-22T06:02:31;16.73;;;6.50;;
39518;SDS011;25200;53.394;10.414;2023-02-22T06:04:57;15.68;;;6.53;;
39518;SDS011;25200;53.394;10.414;2023-02-22T06:07:24;21.45;;;6.78;;
39518;SDS011;25200;53.394;10.414;2023-02-22T06:09:51;18.83;;;6.63;;
39518;SDS011;25200;53.394;10.414;2023-02-22T06:12:17;19.33;;;7.05;;
39518;SDS011;25200;53.394;10.414;2023-02-22T06:14:43;22.08;;;7.55;;
39518;SDS011;25200;53.394;10.414;2023-02-22T06:17:12;22.25;;;7.22;;
39518;SDS011;25200;53.394;10.414;2023-02-22T06:19:39;20.67;;;7.68;;
39518;SDS011;25200;53.394;10.414;2023-02-22T06:22:05;22.98;;;7.65;;
39518;SDS011;25200;53.394;10.414;2023-02-22T06:24:31;20.45;;;7.35;;
39518;SDS011;25200;53.394;10.414;2023-02-22T06:26:59;20.25;;;7.55;;
39518;SDS011;25200;53.394;10.414;2023-02-22T06:29:28;21.80;;;7.30;;
39518;SDS011;25200;53.394;10.414;2023-02-22T06:31:54;24.38;;;7.43;;
39518;SDS011;25200;53.394;10.414;2023-02-22T06:34:20;22.95;;;7.68;;
39518;SDS011;25200;53.394;10.414;2023-02-22T06:36:46;19.58;;;6.38;;
39518;SDS011;25200;53.394;10.414;2023-02-22T06:39:12;26.17;;;7.93;;
39518;SDS011;25200;53.394;10.414;2023-02-22T06:41:40;21.33;;;6.88;;
39518;SDS011;25200;53.394;10.414;2023-02-22T06:44:07;22.45;;;7.40;;
39518;SDS011;25200;53.394;10.414;2023-02-22T06:46:33;22.05;;;7.43;;
39518;SDS011;25200;53.394;10.414;2023-02-22T06:49:00;26.25;;;7.22;;
39518;SDS011;25200;53.394;10.414;2023-02-22T06:51:26;21.45;;;7.15;;
39518;SDS011;25200;53.394;10.414;2023-02-22T06:53:53;21.63;;;7.43;;
39518;SDS011;25200;53.394;10.414;2023-02-22T06:56:18;22.30;;;7.88;;
39518;SDS011;25200;53.394;10.414;2023-02-22T06:58:44;27.63;;;8.75;;
39518;SDS011;25200;53.394;10.414;2023-02-22T07:01:10;28.10;;;8.95;;
39518;SDS011;25200;53.394;10.414;2023-02-22T07:03:36;21.15;;;8.02;;
39518;SDS011;25200;53.394;10.414;2023-02-22T07:06:02;26.80;;;9.68;;
39518;SDS011;25200;53.394;10.414;2023-02-22T07:08:30;26.50;;;9.18;;
39518;SDS011;25200;53.394;10.414;2023-02-22T07:10:56;26.52;;;8.88;;
39518;SDS011;25200;53.394;10.414;2023-02-22T07:13:21;24.35;;;8.23;;
39518;SDS011;25200;53.394;10.414;2023-02-22T07:15:47;26.77;;;8.38;;
39518;SDS011;25200;53.394;10.414;2023-02-22T07:18:13;22.35;;;7.53;;
39518;SDS011;25200;53.394;10.414;2023-02-22T07:20:40;24.50;;;8.48;;
39518;SDS011;25200;53.394;10.414;2023-02-22T07:23:06;23.65;;;8.88;;
39518;SDS011;25200;53.394;10.414;2023-02-22T07:25:32;27.77;;;8.70;;
39518;SDS011;25200;53.394;10.414;2023-02-22T07:27:58;24.83;;;8.57;;
39518;SDS011;25200;53.394;10.414;2023-02-22T07:30:28;28.85;;;8.88;;
39518;SDS011;25200;53.394;10.414;2023-02-22T07:32:57;30.15;;;9.73;;
39518;SDS011;25200;53.394;10.414;2023-02-22T07:35:34;25.77;;;9.40;;
39518;SDS011;25200;53.394;10.414;2023-02-22T07:38:02;26.85;;;8.60;;
39518;SDS011;25200;53.394;10.414;2023-02-22T07:40:30;29.27;;;9.27;;
39518;SDS011;25200;53.394;10.414;2023-02-22T07:42:57;28.55;;;8.98;;
39518;SDS011;25200;53.394;10.414;2023-02-22T07:45:24;31.27;;;10.02;;
39518;SDS011;25200;53.394;10.414;2023-02-22T07:47:52;29.70;;;9.10;;
39518;SDS011;25200;53.394;10.414;2023-02-22T07:50:19;30.77;;;9.13;;
39518;SDS011;25200;53.394;10.414;2023-02-22T07:52:46;26.33;;;9.75;;
39518;SDS011;25200;53.394;10.414;2023-02-22T07:55:14;34.50;;;10.20;;
39518;SDS011;25200;53.394;10.414;2023-02-22T07:57:45;32.33;;;9.68;;
39518;SDS011;25200;53.394;10.414;2023-02-22T08:00:14;34.47;;;10.30;;
39518;SDS011;25200;53.394;10.414;2023-02-22T08:02:46;32.83;;;10.02;;
39518;SDS011;25200;53.394;10.414;2023-02-22T08:05:12;36.60;;;11.18;;
39518;SDS011;25200;53.394;10.414;2023-02-22T08:07:38;30.73;;;10.13;;
39518;SDS011;25200;53.394;10.414;2023-02-22T08:10:05;33.05;;;10.40;;
39518;SDS011;25200;53.394;10.414;2023-02-22T08:12:32;30.17;;;10.77;;
39518;SDS011;25200;53.394;10.414;2023-02-22T08:15:00;25.77;;;9.38;;
39518;SDS011;25200;53.394;10.414;2023-02-22T08:17:26;33.58;;;10.55;;
39518;SDS011;25200;53.394;10.414;2023-02-22T08:19:51;28.83;;;9.95;;
39518;SDS011;25200;53.394;10.414;2023-02-22T08:22:17;32.83;;;9.90;;
39518;SDS011;25200;53.394;10.414;2023-02-22T08:24:43;33.83;;;10.27;;
39518;SDS011;25200;53.394;10.414;2023-02-22T08:27:08;23.90;;;9.20;;
39518;SDS011;25200;53.394;10.414;2023-02-22T08:29:34;30.67;;;10.75;;
39518;SDS011;25200;53.394;10.414;2023-02-22T08:32:00;29.15;;;9.57;;
39518;SDS011;25200;53.394;10.414;2023-02-22T08:34:26;32.63;;;11.38;;
39518;SDS011;25200;53.394;10.414;2023-02-22T08:36:51;28.20;;;10.35;;
39518;SDS011;25200;53.394;10.414;2023-02-22T08:39:18;30.95;;;10.90;;
39518;SDS011;25200;53.394;10.414;2023-02-22T08:41:44;26.63;;;10.70;;
39518;SDS011;25200;53.394;10.414;2023-02-22T08:44:09;33.17;;;10.77;;
39518;SDS011;25200;53.394;10.414;2023-02-22T08:46:35;26.10;;;10.60;;
39518;SDS011;25200;53.394;10.414;2023-02-22T08:49:01;30.73;;;11.32;;
39518;SDS011;25200;53.394;10.414;2023-02-22T08:51:27;35.28;;;11.20;;
39518;SDS011;25200;53.394;10.414;2023-02-22T08:53:53;30.00;;;11.07;;
39518;SDS011;25200;53.394;10.414;2023-02-22T08:56:18;28.00;;;10.73;;
39518;SDS011;25200;53.394;10.414;2023-02-22T08:58:44;26.50;;;10.20;;
39518;SDS011;25200;53.394;10.414;2023-02-22T09:01:10;26.13;;;10.48;;
39518;SDS011;25200;53.394;10.414;2023-02-22T09:03:36;30.88;;;11.13;;
39518;SDS011;25200;53.394;10.414;2023-02-22T09:06:02;30.42;;;11.30;;
39518;SDS011;25200;53.394;10.414;2023-02-22T09:08:28;29.80;;;10.93;;
39518;SDS011;25200;53.394;10.414;2023-02-22T09:10:54;24.45;;;10.65;;
39518;SDS011;25200;53.394;10.414;2023-02-22T09:13:20;27.40;;;10.70;;
39518;SDS011;25200;53.394;10.414;2023-02-22T09:15:45;25.02;;;9.60;;
39518;SDS011;25200;53.394;10.414;2023-02-22T09:18:11;26.70;;;10.45;;
39518;SDS011;25200;53.394;10.414;2023-02-22T09:20:38;27.05;;;10.57;;
39518;SDS011;25200;53.394;10.414;2023-02-22T09:23:05;25.63;;;10.50;;
39518;SDS011;25200;53.394;10.414;2023-02-22T09:25:33;23.75;;;9.48;;
39518;SDS011;25200;53.394;10.414;2023-02-22T09:27:59;23.80;;;9.93;;
39518;SDS011;25200;53.394;10.414;2023-02-22T09:30:33;21.88;;;9.70;;
39518;SDS011;25200;53.394;10.414;2023-02-22T09:33:00;20.83;;;9.40;;
39518;SDS011;25200;53.394;10.414;2023-02-22T09:35:29;22.90;;;10.05;;
39518;SDS011;25200;53.394;10.414;2023-02-22T09:38:00;20.42;;;8.85;;
39518;SDS011;25200;53.394;10.414;2023-02-22T09:40:28;19.17;;;9.32;;
39518;SDS011;25200;53.394;10.414;2023-02-22T09:48:22;25.92;;;10.15;;
39518;SDS011;25200;53.394;10.414;2023-02-22T09:50:50;23.05;;;9.93;;
39518;SDS011;25200;53.394;10.414;2023-02-22T09:53:27;23.23;;;9.55;;
39518;SDS011;25200;53.394;10.414;2023-02-22T09:55:59;26.10;;;10.38;;
39518;SDS011;25200;53.394;10.414;2023-02-22T09:58:35;23.42;;;10.18;;
39518;SDS011;25200;53.394;10.414;2023-02-22T10:01:28;20.88;;;9.35;;
39518;SDS011;25200;53.394;10.414;2023-02-22T10:09:37;25.65;;;10.80;;
39518;SDS011;25200;53.394;10.414;2023-02-22T10:26:24;24.65;;;9.93;;
39518;SDS011;25200;53.394;10.414;2023-02-22T10:28:55;24.55;;;10.43;;
39518;SDS011;25200;53.394;10.414;2023-02-22T10:31:30;24.85;;;9.98;;
39518;SDS011;25200;53.394;10.414;2023-02-22T10:33:59;23.05;;;10.32;;
39518;SDS011;25200;53.394;10.414;2023-02-22T10:36:27;25.92;;;10.43;;
39518;SDS011;25200;53.394;10.414;2023-02-22T10:39:03;27.33;;;10.88;;
39518;SDS011;25200;53.394;10.414;2023-02-22T10:41:54;27.42;;;12.27;;
39518;SDS011;25200;53.394;10.414;2023-02-22T10:44:21;21.45;;;10.55;;
39518;SDS011;25200;53.394;10.414;2023-02-22T10:46:48;24.92;;;11.30;;
39518;SDS011;25200;53.394;10.414;2023-02-22T10:49:17;26.48;;;12.32;;
39518;SDS011;25200;53.394;10.414;2023-02-22T10:51:59;25.40;;;11.32;;
39518;SDS011;25200;53.394;10.414;2023-02-22T10:54:44;27.67;;;12.95;;
39518;SDS011;25200;53.394;10.414;2023-02-22T10:57:12;27.35;;;11.18;;
39518;SDS011;25200;53.394;10.414;2023-02-22T10:59:39;27.92;;;11.77;;
39518;SDS011;25200;53.394;10.414;2023-02-22T11:02:17;24.60;;;12.10;;
39518;SDS011;25200;53.394;10.414;2023-02-22T11:04:52;21.38;;;10.10;;
39518;SDS011;25200;53.394;10.414;2023-02-22T11:14:57;27.42;;;12.25;;
39518;SDS011;25200;53.394;10.414;2023-02-22T11:17:41;24.25;;;10.85;;
39518;SDS011;25200;53.394;10.414;2023-02-22T11:20:19;22.75;;;10.90;;
39518;SDS011;25200;53.394;10.414;2023-02-22T11:22:50;26.42;;;11.93;;
39518;SDS011;25200;53.394;10.414;2023-02-22T11:25:19;22.23;;;11.13;;
39518;SDS011;25200;53.394;10.414;2023-02-22T11:27:48;24.23;;;11.40;;
39518;SDS011;25200;53.394;10.414;2023-02-22T11:32:49;24.77;;;11.02;;
39518;SDS011;25200;53.394;10.414;2023-02-22T11:37:48;21.83;;;10.55;;
39518;SDS011;25200;53.394;10.414;2023-02-22T11:40:15;19.80;;;8.70;;
39518;SDS011;25200;53.394;10.414;2023-02-22T11:42:46;20.63;;;9.93;;
39518;SDS011;25200;53.394;10.414;2023-02-22T11:47:49;21.33;;;9.73;;
39518;SDS011;25200;53.394;10.414;2023-02-22T11:50:29;20.00;;;9.95;;
39518;SDS011;25200;53.394;10.414;2023-02-22T11:53:25;20.42;;;9.00;;
39518;SDS011;25200;53.394;10.414;2023-02-22T11:56:16;22.38;;;10.05;;
39518;SDS011;25200;53.394;10.414;2023-02-22T12:04:03;16.08;;;8.70;;
39518;SDS011;25200;53.394;10.414;2023-02-22T12:09:30;19.23;;;9.13;;
39518;SDS011;25200;53.394;10.414;2023-02-22T12:12:23;16.83;;;8.63;;
39518;SDS011;25200;53.394;10.414;2023-02-22T12:15:01;18.35;;;8.65;;
39518;SDS011;25200;53.394;10.414;2023-02-22T12:23:50;19.20;;;8.23;;
39518;SDS011;25200;53.394;10.414;2023-02-22T12:29:03;18.45;;;8.25;;
39518;SDS011;25200;53.394;10.414;2023-02-22T12:31:43;15.48;;;6.88;;
39518;SDS011;25200;53.394;10.414;2023-02-22T12:37:25;15.63;;;7.50;;
39518;SDS011;25200;53.394;10.414;2023-02-22T12:40:03;15.98;;;7.57;;
39518;SDS011;25200;53.394;10.414;2023-02-22T12:43:09;13.07;;;6.63;;
39518;SDS011;25200;53.394;10.414;2023-02-22T12:46:02;14.80;;;7.15;;
39518;SDS011;25200;53.394;10.414;2023-02-22T12:51:14;14.50;;;7.05;;
39518;SDS011;25200;53.394;10.414;2023-02-22T12:53:52;12.97;;;6.47;;
39518;SDS011;25200;53.394;10.414;2023-02-22T13:01:24;16.60;;;8.50;;
39518;SDS011;25200;53.394;10.414;2023-02-22T13:04:02;18.05;;;9.18;;
39518;SDS011;25200;53.394;10.414;2023-02-22T13:22:54;22.05;;;10.18;;
39518;SDS011;25200;53.394;10.414;2023-02-22T13:25:40;20.77;;;9.10;;
39518;SDS011;25200;53.394;10.414;2023-02-22T13:31:13;19.83;;;9.48;;
39518;SDS011;25200;53.394;10.414;2023-02-22T13:42:33;19.05;;;9.05;;
39518;SDS011;25200;53.394;10.414;2023-02-22T13:51:12;20.42;;;9.05;;
39518;SDS011;25200;53.394;10.414;2023-02-22T13:53:56;21.08;;;9.40;;
39518;SDS011;25200;53.394;10.414;2023-02-22T13:56:31;17.80;;;8.57;;
39518;SDS011;25200;53.394;10.414;2023-02-22T13:58:58;17.23;;;8.48;;
39518;SDS011;25200;53.394;10.414;2023-02-22T14:06:52;18.63;;;8.50;;
39518;SDS011;25200;53.394;10.414;2023-02-22T14:12:09;17.75;;;7.95;;
39518;SDS011;25200;53.394;10.414;2023-02-22T14:18:17;17.77;;;8.02;;
39518;SDS011;25200;53.394;10.414;2023-02-22T14:20:31;16.13;;;8.05;;
39518;SDS011;25200;53.394;10.414;2023-02-22T14:25:56;17.80;;;7.57;;
39518;SDS011;25200;53.394;10.414;2023-02-22T14:28:37;17.05;;;8.02;;
39518;SDS011;25200;53.394;10.414;2023-02-22T14:31:19;17.20;;;7.90;;
39518;SDS011;25200;53.394;10.414;2023-02-22T14:36:16;17.08;;;7.88;;
39518;SDS011;25200;53.394;10.414;2023-02-22T14:38:46;15.30;;;7.90;;
39518;SDS011;25200;53.394;10.414;2023-02-22T14:41:14;14.85;;;7.80;;
39518;SDS011;25200;53.394;10.414;2023-02-22T14:43:41;14.85;;;7.55;;
39518;SDS011;25200;53.394;10.414;2023-02-22T14:46:09;14.38;;;7.57;;
39518;SDS011;25200;53.394;10.414;2023-02-22T14:48:38;18.50;;;7.55;;
39518;SDS011;25200;53.394;10.414;2023-02-22T14:54:02;16.38;;;7.43;;
39518;SDS011;25200;53.394;10.414;2023-02-22T15:02:11;19.75;;;7.88;;
39518;SDS011;25200;53.394;10.414;2023-02-22T15:04:37;15.85;;;7.47;;
39518;SDS011;25200;53.394;10.414;2023-02-22T15:07:29;16.10;;;7.68;;
39518;SDS011;25200;53.394;10.414;2023-02-22T15:12:50;14.68;;;6.95;;
39518;SDS011;25200;53.394;10.414;2023-02-22T15:15:17;16.30;;;7.68;;
39518;SDS011;25200;53.394;10.414;2023-02-22T15:17:52;15.43;;;7.70;;
39518;SDS011;25200;53.394;10.414;2023-02-22T15:20:20;15.07;;;7.47;;
39518;SDS011;25200;53.394;10.414;2023-02-22T15:22:48;18.25;;;7.78;;
39518;SDS011;25200;53.394;10.414;2023-02-22T15:25:14;16.67;;;8.00;;
39518;SDS011;25200;53.394;10.414;2023-02-22T15:27:40;18.88;;;7.90;;
39518;SDS011;25200;53.394;10.414;2023-02-22T15:30:19;15.57;;;7.50;;
39518;SDS011;25200;53.394;10.414;2023-02-22T15:32:50;15.07;;;7.82;;
39518;SDS011;25200;53.394;10.414;2023-02-22T15:37:56;15.45;;;7.88;;
39518;SDS011;25200;53.394;10.414;2023-02-22T15:40:37;16.25;;;7.75;;
39518;SDS011;25200;53.394;10.414;2023-02-22T15:43:14;18.58;;;8.52;;
39518;SDS011;25200;53.394;10.414;2023-02-22T15:45:48;16.45;;;7.40;;
39518;SDS011;25200;53.394;10.414;2023-02-22T15:48:15;15.02;;;7.95;;
39518;SDS011;25200;53.394;10.414;2023-02-22T15:50:57;17.63;;;8.30;;
39518;SDS011;25200;53.394;10.414;2023-02-22T15:53:44;17.17;;;8.27;;
39518;SDS011;25200;53.394;10.414;2023-02-22T15:56:16;20.25;;;9.15;;
39518;SDS011;25200;53.394;10.414;2023-02-22T15:58:47;18.48;;;10.05;;
39518;SDS011;25200;53.394;10.414;2023-02-22T16:01:15;21.48;;;9.82;;
39518;SDS011;25200;53.394;10.414;2023-02-22T16:06:35;17.20;;;8.75;;
39518;SDS011;25200;53.394;10.414;2023-02-22T16:09:10;19.35;;;9.05;;
39518;SDS011;25200;53.394;10.414;2023-02-22T16:11:45;22.70;;;10.18;;
39518;SDS011;25200;53.394;10.414;2023-02-22T16:22:22;19.00;;;8.82;;
39518;SDS011;25200;53.394;10.414;2023-02-22T16:24:51;20.75;;;8.88;;
39518;SDS011;25200;53.394;10.414;2023-02-22T16:27:20;23.75;;;9.45;;
39518;SDS011;25200;53.394;10.414;2023-02-22T16:32:46;17.55;;;8.13;;
39518;SDS011;25200;53.394;10.414;2023-02-22T16:35:12;19.05;;;8.43;;
39518;SDS011;25200;53.394;10.414;2023-02-22T16:37:51;18.48;;;9.00;;
39518;SDS011;25200;53.394;10.414;2023-02-22T16:40:22;20.83;;;9.07;;
39518;SDS011;25200;53.394;10.414;2023-02-22T16:42:49;19.88;;;8.82;;
39518;SDS011;25200;53.394;10.414;2023-02-22T16:45:19;18.77;;;8.52;;
39518;SDS011;25200;53.394;10.414;2023-02-22T16:47:45;17.73;;;8.65;;
39518;SDS011;25200;53.394;10.414;2023-02-22T16:50:15;18.35;;;8.88;;
39518;SDS011;25200;53.394;10.414;2023-02-22T16:52:41;18.48;;;8.18;;
39518;SDS011;25200;53.394;10.414;2023-02-22T16:55:11;17.38;;;7.70;;
39518;SDS011;25200;53.394;10.414;2023-02-22T16:57:38;18.77;;;8.07;;
39518;SDS011;25200;53.394;10.414;2023-02-22T17:00:07;17.33;;;8.10;;
39518;SDS011;25200;53.394;10.414;2023-02-22T17:02:39;16.10;;;7.90;;
39518;SDS011;25200;53.394;10.414;2023-02-22T17:05:05;17.25;;;7.68;;
39518;SDS011;25200;53.394;10.414;2023-02-22T17:07:32;15.48;;;7.55;;
39518;SDS011;25200;53.394;10.414;2023-02-22T17:09:58;14.85;;;7.13;;
39518;SDS011;25200;53.394;10.414;2023-02-22T17:12:27;15.85;;;7.57;;
39518;SDS011;25200;53.394;10.414;2023-02-22T17:14:54;14.50;;;7.10;;
39518;SDS011;25200;53.394;10.414;2023-02-22T17:17:20;14.45;;;6.95;;
39518;SDS011;25200;53.394;10.414;2023-02-22T17:19:45;15.27;;;7.35;;
39518;SDS011;25200;53.394;10.414;2023-02-22T17:22:18;16.20;;;6.78;;
39518;SDS011;25200;53.394;10.414;2023-02-22T17:24:45;14.25;;;6.60;;
39518;SDS011;25200;53.394;10.414;2023-02-22T17:27:12;14.43;;;6.57;;
39518;SDS011;25200;53.394;10.414;2023-02-22T17:29:38;13.77;;;6.72;;
39518;SDS011;25200;53.394;10.414;2023-02-22T17:32:08;14.98;;;6.50;;
39518;SDS011;25200;53.394;10.414;2023-02-22T17:34:34;12.63;;;5.80;;
39518;SDS011;25200;53.394;10.414;2023-02-22T17:37:00;13.40;;;5.60;;